Armadores I — SY8463 — position and weather

sailwx.info

Track history (hours):
 
Tides and Currents Weather Stations Pressure Air Temp Water Temp Dewpoint Dewpoint Depression Visibility Wind Speed Wind Dir Waves Ship Positions

Armadores I

Last reported at 2016-Feb-12 12:33 UTC. Time now 2016-Feb-13 00:21 UTC.
Position N 37°57' E 023°35'.

Length 32 m; draft 5.3 m.

Type: Tug. MMSI: 240694000.

Date/timePositionNaut miles runAvg speedWind from/ knotsBaromVisibWave heightAir tempDewpointWater temp
2016-Feb-12 12:33N 37°57' E 023°35'2 1.7
2016-Feb-12 11:33N 37°55' E 023°35'3 2.5
2016-Feb-12 10:33N 37°57' E 023°37'0 0.0
2016-Feb-12 09:34N 37°57' E 023°37'7 7.2
2016-Feb-12 08:33N 37°53' E 023°30'6 6.2
2016-Feb-12 07:33N 37°57' E 023°24'1 0.6
2016-Feb-12 06:33N 37°57' E 023°24'1 1.3
2016-Feb-12 05:33N 37°58' E 023°25'6 6.0
2016-Feb-12 04:33N 37°58' E 023°33'2 0.2
2016-Feb-11 15:33N 37°57' E 023°36'5 4.6
2016-Feb-11 14:33N 38°02' E 023°35'0 0.2
2016-Feb-11 13:33N 38°01' E 023°34'1 0.8
2016-Feb-11 12:33N 38°01' E 023°34'1 1.1
2016-Feb-11 11:33N 38°01' E 023°32'1 1.4
2016-Feb-11 10:33N 37°59' E 023°33'3 3.3
2016-Feb-11 09:33N 37°57' E 023°36'0 0.0
2016-Feb-11 08:33N 37°57' E 023°36'1 1.3
2016-Feb-11 07:34N 37°56' E 023°36'1 1.2
2016-Feb-11 06:33N 37°57' E 023°35'1 1.3
2016-Feb-11 05:33N 37°57' E 023°37'0 0.0
2016-Feb-11 04:33N 37°57' E 023°37'2 0.1
2016-Feb-10 01:18N 37°57' E 023°35'4 5.9
2016-Feb-10 00:33N 38°01' E 023°36'0 0.0
2016-Feb-09 23:33N 38°01' E 023°36'0 0.2
2016-Feb-09 22:34N 38°01' E 023°35'0 0.0
2016-Feb-09 21:33N 38°01' E 023°35'0 0.0
2016-Feb-09 20:33N 38°01' E 023°35'0 0.0
2016-Feb-09 19:34N 38°01' E 023°35'0 0.0
2016-Feb-09 18:33N 38°01' E 023°35'0 0.0
2016-Feb-09 17:33N 38°01' E 023°35'2 2.0
2016-Feb-09 16:34N 38°01' E 023°33'4 4.1
2016-Feb-09 15:34N 37°57' E 023°37'0 0.0
2016-Feb-09 14:33N 37°57' E 023°37'1 1.2
2016-Feb-09 13:33N 37°57' E 023°35'1 1.2
2016-Feb-09 12:33N 37°57' E 023°37'0 0.0
2016-Feb-09 11:33N 37°57' E 023°37'0 0.0
2016-Feb-09 10:33N 37°57' E 023°37'0 0.0
2016-Feb-09 09:33N 37°57' E 023°37'0 0.0
2016-Feb-09 08:33N 37°57' E 023°37'0 0.0
2016-Feb-09 07:34N 37°57' E 023°37'0 0.0
2016-Feb-09 06:33N 37°57' E 023°37'0 0.0
2016-Feb-09 05:33N 37°57' E 023°37'0 0.0
2016-Feb-09 04:34N 37°57' E 023°37'2 0.1
2016-Feb-08 12:33N 37°57' E 023°35'1 0.9
2016-Feb-08 11:33N 37°57' E 023°36'1 0.7
2016-Feb-08 10:34N 37°57' E 023°36'2 2.0
2016-Feb-08 09:33N 37°58' E 023°34'1 1.1
2016-Feb-08 08:33N 37°58' E 023°33'4 4.2
2016-Feb-08 07:33N 38°02' E 023°36'0 0.3
2016-Feb-08 06:33N 38°01' E 023°36'0 0.0
2016-Feb-08 05:33N 38°01' E 023°36'0 0.0
2016-Feb-08 04:33N 38°01' E 023°36'0 0.0
2016-Feb-08 03:33N 38°01' E 023°36'0 0.0
2016-Feb-08 02:33N 38°01' E 023°36'0 0.0
2016-Feb-08 01:33N 38°01' E 023°36'0 0.0
2016-Feb-08 00:33N 38°01' E 023°36'0 0.0
2016-Feb-07 23:33N 38°01' E 023°36'0 0.0
2016-Feb-07 22:33N 38°01' E 023°36'0 0.0
2016-Feb-07 21:33N 38°01' E 023°36'0 0.0
2016-Feb-07 20:33N 38°01' E 023°36'0 0.0
2016-Feb-07 19:33N 38°01' E 023°36'0 0.0
2016-Feb-07 18:33N 38°01' E 023°36'0 0.0
2016-Feb-07 17:33N 38°01' E 023°36'0 0.0
2016-Feb-07 16:33N 38°01' E 023°36'0 0.0
2016-Feb-07 15:33N 38°01' E 023°36'0 0.0
2016-Feb-07 14:33N 38°01' E 023°36'0 0.0
2016-Feb-07 13:34N 38°01' E 023°36'0 0.0
2016-Feb-07 12:33N 38°01' E 023°36'0 0.0
2016-Feb-07 11:33N 38°01' E 023°36'0 0.0
2016-Feb-07 10:34N 38°01' E 023°36'0 0.0
2016-Feb-07 09:33N 38°01' E 023°36'0 0.0
2016-Feb-07 08:33N 38°01' E 023°36'0 0.0
2016-Feb-07 07:33N 38°01' E 023°36'0 0.0
2016-Feb-07 06:33N 38°01' E 023°36'0 0.0
2016-Feb-07 05:34N 38°01' E 023°36'0 0.0
2016-Feb-07 04:34N 38°01' E 023°36'0 0.0
2016-Feb-07 03:33N 38°01' E 023°36'0 0.0
2016-Feb-07 02:34N 38°01' E 023°36'0 0.0
2016-Feb-07 01:33N 38°01' E 023°36'0 0.0
2016-Feb-07 00:33N 38°01' E 023°35'0 0.0
2016-Feb-06 23:33N 38°01' E 023°35'0 0.0
2016-Feb-06 22:33N 38°01' E 023°35'0 0.0
2016-Feb-06 21:33N 38°01' E 023°36'0 0.0
2016-Feb-06 20:33N 38°01' E 023°35'0 0.0
2016-Feb-06 19:33N 38°01' E 023°36'0 0.0
2016-Feb-06 18:33N 38°01' E 023°36'0 0.0
2016-Feb-06 17:33N 38°01' E 023°35'0 0.0
2016-Feb-06 16:33N 38°01' E 023°36'0 0.2
2016-Feb-06 15:34N 38°02' E 023°36'2 2.1
2016-Feb-06 14:33N 38°00' E 023°34'4 3.7
2016-Feb-06 13:33N 37°57' E 023°37'0 0.0
2016-Feb-06 12:33N 37°57' E 023°37'0 0.0
2016-Feb-06 11:33N 37°57' E 023°37'0 0.0
2016-Feb-06 10:32N 37°57' E 023°37'0 0.0
2016-Feb-06 09:33N 37°57' E 023°37'1 1.4
2016-Feb-06 08:33N 37°57' E 023°35'8 7.6
2016-Feb-06 07:33N 37°60' E 023°26'3 2.8
2016-Feb-06 06:33N 37°58' E 023°23'2 2.1
2016-Feb-06 05:33N 37°58' E 023°26'7 6.7
2016-Feb-06 04:33N 38°02' E 023°32'0 0.0
2016-Feb-06 03:34N 38°02' E 023°32'0 0.0
2016-Feb-06 02:33N 38°02' E 023°32'0 0.0
2016-Feb-06 01:23N 38°02' E 023°32'0 0.0
2016-Feb-06 00:21N 38°02' E 023°32'0 0.0
2016-Feb-05 23:28N 38°02' E 023°32'0 0.0
2016-Feb-05 22:33N 38°02' E 023°32'0 0.0
2016-Feb-05 21:33N 38°02' E 023°32'0 0.0
2016-Feb-05 20:33N 38°02' E 023°32'2 2.2
2016-Feb-05 19:33N 38°01' E 023°35'2 2.2
2016-Feb-05 18:33N 38°02' E 023°32'2 1.5
2016-Feb-05 17:34N 38°02' E 023°31'0 0.3
2016-Feb-05 16:33N 38°02' E 023°31'0 0.4
2016-Feb-05 15:33N 38°02' E 023°31'1 1.4
2016-Feb-05 14:33N 38°01' E 023°31'1 1.0
2016-Feb-05 13:33N 38°02' E 023°32'1 1.0
2016-Feb-05 12:33N 38°02' E 023°31'1 1.4
2016-Feb-05 11:33N 38°01' E 023°32'4 3.8
2016-Feb-05 10:33N 37°57' E 023°34'1 1.4
2016-Feb-05 09:33N 37°56' E 023°35'1 0.9
2016-Feb-05 08:33N 37°57' E 023°35'1 0.0
2016-Feb-03 23:33N 37°57' E 023°37'0 0.0
2016-Feb-03 22:32N 37°57' E 023°37'0 0.0
2016-Feb-03 21:33N 37°57' E 023°37'1 1.2
2016-Feb-03 20:33N 37°57' E 023°35'1 1.2
2016-Feb-03 19:34N 37°58' E 023°34'0 0.0
2016-Feb-03 18:34N 37°58' E 023°34'0 0.0
2016-Feb-03 17:33N 37°58' E 023°34'0 0.0
2016-Feb-03 16:34N 37°58' E 023°34'0 0.0
2016-Feb-03 15:33N 37°58' E 023°34'0 0.0
2016-Feb-03 14:33N 37°58' E 023°34'1 1.4
2016-Feb-03 13:33N 37°57' E 023°35'1 1.0
2016-Feb-03 12:33N 37°57' E 023°37'3 2.6
2016-Feb-03 11:34N 37°57' E 023°33'0 0.0
2016-Feb-03 10:34N 37°57' E 023°33'2 1.5
2016-Feb-03 09:33N 37°57' E 023°35'1 1.0
2016-Feb-03 08:33N 37°57' E 023°34'2 1.8
2016-Feb-03 07:33N 37°57' E 023°36'0 0.0
2016-Feb-03 06:33N 37°57' E 023°36'0 0.0
2016-Feb-03 05:33N 37°57' E 023°36'0 0.0
2016-Feb-03 04:33N 37°57' E 023°36'0 0.0
2016-Feb-03 03:33N 37°57' E 023°36'0 0.0
2016-Feb-03 02:34N 37°57' E 023°36'0 0.0
2016-Feb-03 01:33N 37°57' E 023°36'7 6.5
2016-Feb-03 00:33N 37°52' E 023°31'0 0.1
2016-Feb-02 23:33N 37°52' E 023°31'2 1.7
2016-Feb-02 22:34N 37°53' E 023°33'3 2.7
2016-Feb-02 21:33N 37°55' E 023°35'2 2.2
2016-Feb-02 20:33N 37°57' E 023°36'0 0.2
2016-Feb-02 19:33N 37°57' E 023°36'0 0.1
2016-Feb-02 18:33N 37°57' E 023°36'0 0.0
2016-Feb-02 17:33N 37°57' E 023°36'0 0.3
2016-Feb-02 16:34N 37°57' E 023°37'0 0.0
2016-Feb-02 15:33N 37°57' E 023°37'1 1.0
2016-Feb-02 14:33N 37°57' E 023°37'1 1.0
2016-Feb-02 13:33N 37°57' E 023°37'1 1.1
2016-Feb-02 12:33N 37°57' E 023°35'  
Track history (hours):
 
Tides and Currents Weather Stations Pressure Air Temp Water Temp Dewpoint Dewpoint Depression Visibility Wind Speed Wind Dir Waves Ship Positions

Armadores I

Last reported at 2016-Feb-12 12:33 UTC. Time now 2016-Feb-13 00:21 UTC.
Position N 37°57' E 023°35'.

Length 32 m; draft 5.3 m.

Type: Tug. MMSI: 240694000.

Date/timePositionNaut miles runAvg speedWind from/ knotsBaromVisibWave heightAir tempDewpointWater temp
2016-Feb-12 12:33N 37°57' E 023°35'2 1.7
2016-Feb-12 11:33N 37°55' E 023°35'3 2.5
2016-Feb-12 10:33N 37°57' E 023°37'0 0.0
2016-Feb-12 09:34N 37°57' E 023°37'7 7.2
2016-Feb-12 08:33N 37°53' E 023°30'6 6.2
2016-Feb-12 07:33N 37°57' E 023°24'1 0.6
2016-Feb-12 06:33N 37°57' E 023°24'1 1.3
2016-Feb-12 05:33N 37°58' E 023°25'6 6.0
2016-Feb-12 04:33N 37°58' E 023°33'2 0.2
2016-Feb-11 15:33N 37°57' E 023°36'5 4.6
2016-Feb-11 14:33N 38°02' E 023°35'0 0.2
2016-Feb-11 13:33N 38°01' E 023°34'1 0.8
2016-Feb-11 12:33N 38°01' E 023°34'1 1.1
2016-Feb-11 11:33N 38°01' E 023°32'1 1.4
2016-Feb-11 10:33N 37°59' E 023°33'3 3.3
2016-Feb-11 09:33N 37°57' E 023°36'0 0.0
2016-Feb-11 08:33N 37°57' E 023°36'1 1.3
2016-Feb-11 07:34N 37°56' E 023°36'1 1.2
2016-Feb-11 06:33N 37°57' E 023°35'1 1.3
2016-Feb-11 05:33N 37°57' E 023°37'0 0.0
2016-Feb-11 04:33N 37°57' E 023°37'2 0.1
2016-Feb-10 01:18N 37°57' E 023°35'4 5.9
2016-Feb-10 00:33N 38°01' E 023°36'0 0.0
2016-Feb-09 23:33N 38°01' E 023°36'0 0.2
2016-Feb-09 22:34N 38°01' E 023°35'0 0.0
2016-Feb-09 21:33N 38°01' E 023°35'0 0.0
2016-Feb-09 20:33N 38°01' E 023°35'0 0.0
2016-Feb-09 19:34N 38°01' E 023°35'0 0.0
2016-Feb-09 18:33N 38°01' E 023°35'0 0.0
2016-Feb-09 17:33N 38°01' E 023°35'2 2.0
2016-Feb-09 16:34N 38°01' E 023°33'4 4.1
2016-Feb-09 15:34N 37°57' E 023°37'0 0.0
2016-Feb-09 14:33N 37°57' E 023°37'1 1.2
2016-Feb-09 13:33N 37°57' E 023°35'1 1.2
2016-Feb-09 12:33N 37°57' E 023°37'0 0.0
2016-Feb-09 11:33N 37°57' E 023°37'0 0.0
2016-Feb-09 10:33N 37°57' E 023°37'0 0.0
2016-Feb-09 09:33N 37°57' E 023°37'0 0.0
2016-Feb-09 08:33N 37°57' E 023°37'0 0.0
2016-Feb-09 07:34N 37°57' E 023°37'0 0.0
2016-Feb-09 06:33N 37°57' E 023°37'0 0.0
2016-Feb-09 05:33N 37°57' E 023°37'0 0.0
2016-Feb-09 04:34N 37°57' E 023°37'2 0.1
2016-Feb-08 12:33N 37°57' E 023°35'1 0.9
2016-Feb-08 11:33N 37°57' E 023°36'1 0.7
2016-Feb-08 10:34N 37°57' E 023°36'2 2.0
2016-Feb-08 09:33N 37°58' E 023°34'1 1.1
2016-Feb-08 08:33N 37°58' E 023°33'4 4.2
2016-Feb-08 07:33N 38°02' E 023°36'0 0.3
2016-Feb-08 06:33N 38°01' E 023°36'0 0.0
2016-Feb-08 05:33N 38°01' E 023°36'0 0.0
2016-Feb-08 04:33N 38°01' E 023°36'0 0.0
2016-Feb-08 03:33N 38°01' E 023°36'0 0.0
2016-Feb-08 02:33N 38°01' E 023°36'0 0.0
2016-Feb-08 01:33N 38°01' E 023°36'0 0.0
2016-Feb-08 00:33N 38°01' E 023°36'0 0.0
2016-Feb-07 23:33N 38°01' E 023°36'0 0.0
2016-Feb-07 22:33N 38°01' E 023°36'0 0.0
2016-Feb-07 21:33N 38°01' E 023°36'0 0.0
2016-Feb-07 20:33N 38°01' E 023°36'0 0.0
2016-Feb-07 19:33N 38°01' E 023°36'0 0.0
2016-Feb-07 18:33N 38°01' E 023°36'0 0.0
2016-Feb-07 17:33N 38°01' E 023°36'0 0.0
2016-Feb-07 16:33N 38°01' E 023°36'0 0.0
2016-Feb-07 15:33N 38°01' E 023°36'0 0.0
2016-Feb-07 14:33N 38°01' E 023°36'0 0.0
2016-Feb-07 13:34N 38°01' E 023°36'0 0.0
2016-Feb-07 12:33N 38°01' E 023°36'0 0.0
2016-Feb-07 11:33N 38°01' E 023°36'0 0.0
2016-Feb-07 10:34N 38°01' E 023°36'0 0.0
2016-Feb-07 09:33N 38°01' E 023°36'0 0.0
2016-Feb-07 08:33N 38°01' E 023°36'0 0.0
2016-Feb-07 07:33N 38°01' E 023°36'0 0.0
2016-Feb-07 06:33N 38°01' E 023°36'0 0.0
2016-Feb-07 05:34N 38°01' E 023°36'0 0.0
2016-Feb-07 04:34N 38°01' E 023°36'0 0.0
2016-Feb-07 03:33N 38°01' E 023°36'0 0.0
2016-Feb-07 02:34N 38°01' E 023°36'0 0.0
2016-Feb-07 01:33N 38°01' E 023°36'0 0.0
2016-Feb-07 00:33N 38°01' E 023°35'0 0.0
2016-Feb-06 23:33N 38°01' E 023°35'0 0.0
2016-Feb-06 22:33N 38°01' E 023°35'0 0.0
2016-Feb-06 21:33N 38°01' E 023°36'0 0.0
2016-Feb-06 20:33N 38°01' E 023°35'0 0.0
2016-Feb-06 19:33N 38°01' E 023°36'0 0.0
2016-Feb-06 18:33N 38°01' E 023°36'0 0.0
2016-Feb-06 17:33N 38°01' E 023°35'0 0.0
2016-Feb-06 16:33N 38°01' E 023°36'0 0.2
2016-Feb-06 15:34N 38°02' E 023°36'2 2.1
2016-Feb-06 14:33N 38°00' E 023°34'4 3.7
2016-Feb-06 13:33N 37°57' E 023°37'0 0.0
2016-Feb-06 12:33N 37°57' E 023°37'0 0.0
2016-Feb-06 11:33N 37°57' E 023°37'0 0.0
2016-Feb-06 10:32N 37°57' E 023°37'0 0.0
2016-Feb-06 09:33N 37°57' E 023°37'1 1.4
2016-Feb-06 08:33N 37°57' E 023°35'8 7.6
2016-Feb-06 07:33N 37°60' E 023°26'3 2.8
2016-Feb-06 06:33N 37°58' E 023°23'2 2.1
2016-Feb-06 05:33N 37°58' E 023°26'7 6.7
2016-Feb-06 04:33N 38°02' E 023°32'0 0.0
2016-Feb-06 03:34N 38°02' E 023°32'0 0.0
2016-Feb-06 02:33N 38°02' E 023°32'0 0.0
2016-Feb-06 01:23N 38°02' E 023°32'0 0.0
2016-Feb-06 00:21N 38°02' E 023°32'0 0.0
2016-Feb-05 23:28N 38°02' E 023°32'0 0.0
2016-Feb-05 22:33N 38°02' E 023°32'0 0.0
2016-Feb-05 21:33N 38°02' E 023°32'0 0.0
2016-Feb-05 20:33N 38°02' E 023°32'2 2.2
2016-Feb-05 19:33N 38°01' E 023°35'2 2.2
2016-Feb-05 18:33N 38°02' E 023°32'2 1.5
2016-Feb-05 17:34N 38°02' E 023°31'0 0.3
2016-Feb-05 16:33N 38°02' E 023°31'0 0.4
2016-Feb-05 15:33N 38°02' E 023°31'1 1.4
2016-Feb-05 14:33N 38°01' E 023°31'1 1.0
2016-Feb-05 13:33N 38°02' E 023°32'1 1.0
2016-Feb-05 12:33N 38°02' E 023°31'1 1.4
2016-Feb-05 11:33N 38°01' E 023°32'4 3.8
2016-Feb-05 10:33N 37°57' E 023°34'1 1.4
2016-Feb-05 09:33N 37°56' E 023°35'1 0.9
2016-Feb-05 08:33N 37°57' E 023°35'1 0.0
2016-Feb-03 23:33N 37°57' E 023°37'0 0.0
2016-Feb-03 22:32N 37°57' E 023°37'0 0.0
2016-Feb-03 21:33N 37°57' E 023°37'1 1.2
2016-Feb-03 20:33N 37°57' E 023°35'1 1.2
2016-Feb-03 19:34N 37°58' E 023°34'0 0.0
2016-Feb-03 18:34N 37°58' E 023°34'0 0.0
2016-Feb-03 17:33N 37°58' E 023°34'0 0.0
2016-Feb-03 16:34N 37°58' E 023°34'0 0.0
2016-Feb-03 15:33N 37°58' E 023°34'0 0.0
2016-Feb-03 14:33N 37°58' E 023°34'1 1.4
2016-Feb-03 13:33N 37°57' E 023°35'1 1.0
2016-Feb-03 12:33N 37°57' E 023°37'3 2.6
2016-Feb-03 11:34N 37°57' E 023°33'0 0.0
2016-Feb-03 10:34N 37°57' E 023°33'2 1.5
2016-Feb-03 09:33N 37°57' E 023°35'1 1.0
2016-Feb-03 08:33N 37°57' E 023°34'2 1.8
2016-Feb-03 07:33N 37°57' E 023°36'0 0.0
2016-Feb-03 06:33N 37°57' E 023°36'0 0.0
2016-Feb-03 05:33N 37°57' E 023°36'0 0.0
2016-Feb-03 04:33N 37°57' E 023°36'0 0.0
2016-Feb-03 03:33N 37°57' E 023°36'0 0.0
2016-Feb-03 02:34N 37°57' E 023°36'0 0.0
2016-Feb-03 01:33N 37°57' E 023°36'7 6.5
2016-Feb-03 00:33N 37°52' E 023°31'0 0.1
2016-Feb-02 23:33N 37°52' E 023°31'2 1.7
2016-Feb-02 22:34N 37°53' E 023°33'3 2.7
2016-Feb-02 21:33N 37°55' E 023°35'2 2.2
2016-Feb-02 20:33N 37°57' E 023°36'0 0.2
2016-Feb-02 19:33N 37°57' E 023°36'0 0.1
2016-Feb-02 18:33N 37°57' E 023°36'0 0.0
2016-Feb-02 17:33N 37°57' E 023°36'0 0.3
2016-Feb-02 16:34N 37°57' E 023°37'0 0.0
2016-Feb-02 15:33N 37°57' E 023°37'1 1.0
2016-Feb-02 14:33N 37°57' E 023°37'1 1.0
2016-Feb-02 13:33N 37°57' E 023°37'1 1.1
2016-Feb-02 12:33N 37°57' E 023°35'  

Dump ship's entire track history